sensor_id;sensor_type;location;lat;lon;timestamp;P1;durP1;ratioP1;P2;durP2;ratioP2
3543;SDS011;1786;52.870;9.578;2022-12-11T00:01:14;7.90;;;5.20;;
3543;SDS011;1786;52.870;9.578;2022-12-11T00:03:44;5.77;;;5.20;;
3543;SDS011;1786;52.870;9.578;2022-12-11T00:06:13;5.40;;;4.90;;
3543;SDS011;1786;52.870;9.578;2022-12-11T00:08:40;5.53;;;4.97;;
3543;SDS011;1786;52.870;9.578;2022-12-11T00:11:07;5.77;;;5.27;;
3543;SDS011;1786;52.870;9.578;2022-12-11T00:13:35;6.40;;;4.97;;
3543;SDS011;1786;52.870;9.578;2022-12-11T00:16:01;5.67;;;4.80;;
3543;SDS011;1786;52.870;9.578;2022-12-11T00:18:28;5.70;;;5.13;;
3543;SDS011;1786;52.870;9.578;2022-12-11T00:20:58;5.23;;;4.70;;
3543;SDS011;1786;52.870;9.578;2022-12-11T00:23:26;7.53;;;5.90;;
3543;SDS011;1786;52.870;9.578;2022-12-11T00:25:53;5.63;;;5.10;;
3543;SDS011;1786;52.870;9.578;2022-12-11T00:28:20;6.00;;;5.13;;
3543;SDS011;1786;52.870;9.578;2022-12-11T00:30:47;8.30;;;4.70;;
3543;SDS011;1786;52.870;9.578;2022-12-11T00:33:14;6.30;;;5.73;;
3543;SDS011;1786;52.870;9.578;2022-12-11T00:35:43;6.43;;;5.17;;
3543;SDS011;1786;52.870;9.578;2022-12-11T00:38:18;6.73;;;4.93;;
3543;SDS011;1786;52.870;9.578;2022-12-11T00:40:46;6.00;;;5.40;;
3543;SDS011;1786;52.870;9.578;2022-12-11T00:43:15;6.70;;;6.00;;
3543;SDS011;1786;52.870;9.578;2022-12-11T00:45:43;6.83;;;5.80;;
3543;SDS011;1786;52.870;9.578;2022-12-11T00:48:12;5.00;;;4.60;;
3543;SDS011;1786;52.870;9.578;2022-12-11T00:50:40;9.10;;;6.27;;
3543;SDS011;1786;52.870;9.578;2022-12-11T00:53:07;7.77;;;6.00;;
3543;SDS011;1786;52.870;9.578;2022-12-11T00:55:37;6.43;;;5.73;;
3543;SDS011;1786;52.870;9.578;2022-12-11T00:58:05;6.43;;;5.73;;
3543;SDS011;1786;52.870;9.578;2022-12-11T01:00:32;5.80;;;5.20;;
3543;SDS011;1786;52.870;9.578;2022-12-11T01:02:59;5.70;;;5.07;;
3543;SDS011;1786;52.870;9.578;2022-12-11T01:05:26;9.90;;;5.80;;
3543;SDS011;1786;52.870;9.578;2022-12-11T01:07:53;6.73;;;5.77;;
3543;SDS011;1786;52.870;9.578;2022-12-11T01:10:21;7.60;;;5.37;;
3543;SDS011;1786;52.870;9.578;2022-12-11T01:12:55;7.13;;;6.10;;
3543;SDS011;1786;52.870;9.578;2022-12-11T01:15:27;7.20;;;6.60;;
3543;SDS011;1786;52.870;9.578;2022-12-11T01:17:56;9.23;;;6.40;;
3543;SDS011;1786;52.870;9.578;2022-12-11T01:20:23;8.10;;;6.60;;
3543;SDS011;1786;52.870;9.578;2022-12-11T01:22:51;6.63;;;5.80;;
3543;SDS011;1786;52.870;9.578;2022-12-11T01:25:19;7.60;;;6.13;;
3543;SDS011;1786;52.870;9.578;2022-12-11T01:27:45;7.37;;;6.67;;
3543;SDS011;1786;52.870;9.578;2022-12-11T01:30:12;8.60;;;5.97;;
3543;SDS011;1786;52.870;9.578;2022-12-11T01:32:39;12.80;;;6.33;;
3543;SDS011;1786;52.870;9.578;2022-12-11T01:35:06;11.27;;;6.80;;
3543;SDS011;1786;52.870;9.578;2022-12-11T01:37:34;8.80;;;6.33;;
3543;SDS011;1786;52.870;9.578;2022-12-11T01:40:02;6.97;;;6.27;;
3543;SDS011;1786;52.870;9.578;2022-12-11T01:42:30;8.43;;;6.07;;
3543;SDS011;1786;52.870;9.578;2022-12-11T01:48:07;6.00;;;5.40;;
3543;SDS011;1786;52.870;9.578;2022-12-11T01:50:37;6.60;;;6.00;;
3543;SDS011;1786;52.870;9.578;2022-12-11T01:53:12;7.90;;;6.00;;
3543;SDS011;1786;52.870;9.578;2022-12-11T01:55:42;10.17;;;5.97;;
3543;SDS011;1786;52.870;9.578;2022-12-11T01:58:11;7.27;;;5.33;;
3543;SDS011;1786;52.870;9.578;2022-12-11T02:00:38;6.43;;;5.83;;
3543;SDS011;1786;52.870;9.578;2022-12-11T02:03:05;7.30;;;6.07;;
3543;SDS011;1786;52.870;9.578;2022-12-11T02:05:32;6.87;;;6.27;;
3543;SDS011;1786;52.870;9.578;2022-12-11T02:07:59;7.67;;;5.87;;
3543;SDS011;1786;52.870;9.578;2022-12-11T02:10:35;8.50;;;6.50;;
3543;SDS011;1786;52.870;9.578;2022-12-11T02:13:16;7.77;;;5.70;;
3543;SDS011;1786;52.870;9.578;2022-12-11T02:15:50;7.87;;;5.90;;
3543;SDS011;1786;52.870;9.578;2022-12-11T02:29:07;6.73;;;5.93;;
3543;SDS011;1786;52.870;9.578;2022-12-11T02:32:00;7.43;;;6.00;;
3543;SDS011;1786;52.870;9.578;2022-12-11T02:37:10;7.13;;;5.73;;
3543;SDS011;1786;52.870;9.578;2022-12-11T02:39:42;8.13;;;5.93;;
3543;SDS011;1786;52.870;9.578;2022-12-11T02:42:11;5.87;;;5.03;;
3543;SDS011;1786;52.870;9.578;2022-12-11T02:44:39;6.70;;;5.77;;
3543;SDS011;1786;52.870;9.578;2022-12-11T02:47:07;8.43;;;5.80;;
3543;SDS011;1786;52.870;9.578;2022-12-11T02:49:38;6.07;;;5.40;;
3543;SDS011;1786;52.870;9.578;2022-12-11T02:52:08;5.73;;;5.13;;
3543;SDS011;1786;52.870;9.578;2022-12-11T02:54:37;7.90;;;5.73;;
3543;SDS011;1786;52.870;9.578;2022-12-11T02:57:16;5.77;;;4.80;;
3543;SDS011;1786;52.870;9.578;2022-12-11T02:59:49;10.50;;;5.43;;
3543;SDS011;1786;52.870;9.578;2022-12-11T03:02:16;6.00;;;4.60;;
3543;SDS011;1786;52.870;9.578;2022-12-11T03:04:44;6.10;;;5.50;;
3543;SDS011;1786;52.870;9.578;2022-12-11T03:07:13;5.67;;;5.17;;
3543;SDS011;1786;52.870;9.578;2022-12-11T03:09:42;8.00;;;5.23;;
3543;SDS011;1786;52.870;9.578;2022-12-11T03:12:11;7.57;;;5.27;;
3543;SDS011;1786;52.870;9.578;2022-12-11T03:14:44;8.43;;;5.83;;
3543;SDS011;1786;52.870;9.578;2022-12-11T03:17:12;8.63;;;5.53;;
3543;SDS011;1786;52.870;9.578;2022-12-11T03:19:46;8.47;;;5.73;;
3543;SDS011;1786;52.870;9.578;2022-12-11T03:24:45;5.03;;;4.47;;
3543;SDS011;1786;52.870;9.578;2022-12-11T03:27:18;7.13;;;5.37;;
3543;SDS011;1786;52.870;9.578;2022-12-11T03:30:09;8.57;;;6.00;;
3543;SDS011;1786;52.870;9.578;2022-12-11T03:32:46;7.03;;;4.90;;
3543;SDS011;1786;52.870;9.578;2022-12-11T03:37:43;6.57;;;5.80;;
3543;SDS011;1786;52.870;9.578;2022-12-11T03:40:14;9.57;;;5.50;;
3543;SDS011;1786;52.870;9.578;2022-12-11T03:42:45;7.93;;;5.30;;
3543;SDS011;1786;52.870;9.578;2022-12-11T03:45:15;10.30;;;5.60;;
3543;SDS011;1786;52.870;9.578;2022-12-11T03:47:44;8.20;;;6.23;;
3543;SDS011;1786;52.870;9.578;2022-12-11T03:50:12;8.60;;;6.40;;
3543;SDS011;1786;52.870;9.578;2022-12-11T03:52:43;6.07;;;4.67;;
3543;SDS011;1786;52.870;9.578;2022-12-11T03:55:13;6.50;;;5.23;;
3543;SDS011;1786;52.870;9.578;2022-12-11T03:57:42;6.13;;;4.80;;
3543;SDS011;1786;52.870;9.578;2022-12-11T04:00:11;6.40;;;5.17;;
3543;SDS011;1786;52.870;9.578;2022-12-11T04:02:43;6.40;;;4.70;;
3543;SDS011;1786;52.870;9.578;2022-12-11T04:05:10;4.77;;;4.00;;
3543;SDS011;1786;52.870;9.578;2022-12-11T04:07:38;5.60;;;5.10;;
3543;SDS011;1786;52.870;9.578;2022-12-11T04:10:05;5.63;;;5.00;;
3543;SDS011;1786;52.870;9.578;2022-12-11T04:12:32;5.30;;;3.87;;
3543;SDS011;1786;52.870;9.578;2022-12-11T04:14:58;6.03;;;4.80;;
3543;SDS011;1786;52.870;9.578;2022-12-11T04:17:30;5.43;;;4.43;;
3543;SDS011;1786;52.870;9.578;2022-12-11T04:20:20;5.93;;;4.80;;
3543;SDS011;1786;52.870;9.578;2022-12-11T04:23:08;6.43;;;4.80;;
3543;SDS011;1786;52.870;9.578;2022-12-11T04:26:07;9.50;;;5.80;;
3543;SDS011;1786;52.870;9.578;2022-12-11T04:28:36;6.60;;;5.43;;
3543;SDS011;1786;52.870;9.578;2022-12-11T04:31:03;5.17;;;4.70;;
3543;SDS011;1786;52.870;9.578;2022-12-11T04:33:30;7.80;;;5.40;;
3543;SDS011;1786;52.870;9.578;2022-12-11T04:35:57;6.90;;;5.33;;
3543;SDS011;1786;52.870;9.578;2022-12-11T04:38:25;6.60;;;5.03;;
3543;SDS011;1786;52.870;9.578;2022-12-11T04:40:59;6.70;;;4.90;;
3543;SDS011;1786;52.870;9.578;2022-12-11T04:43:27;6.73;;;6.10;;
3543;SDS011;1786;52.870;9.578;2022-12-11T04:46:04;5.00;;;4.30;;
3543;SDS011;1786;52.870;9.578;2022-12-11T04:48:33;8.60;;;5.33;;
3543;SDS011;1786;52.870;9.578;2022-12-11T04:51:00;6.07;;;4.77;;
3543;SDS011;1786;52.870;9.578;2022-12-11T04:53:27;8.77;;;6.03;;
3543;SDS011;1786;52.870;9.578;2022-12-11T04:55:54;7.80;;;4.87;;
3543;SDS011;1786;52.870;9.578;2022-12-11T04:58:20;8.27;;;6.00;;
3543;SDS011;1786;52.870;9.578;2022-12-11T05:00:48;7.83;;;5.87;;
3543;SDS011;1786;52.870;9.578;2022-12-11T05:03:15;9.20;;;6.03;;
3543;SDS011;1786;52.870;9.578;2022-12-11T05:05:49;7.00;;;5.50;;
3543;SDS011;1786;52.870;9.578;2022-12-11T05:08:18;7.00;;;5.93;;
3543;SDS011;1786;52.870;9.578;2022-12-11T05:10:59;7.70;;;6.13;;
3543;SDS011;1786;52.870;9.578;2022-12-11T05:13:27;6.70;;;5.20;;
3543;SDS011;1786;52.870;9.578;2022-12-11T05:15:54;6.67;;;5.90;;
3543;SDS011;1786;52.870;9.578;2022-12-11T05:18:22;10.00;;;5.97;;
3543;SDS011;1786;52.870;9.578;2022-12-11T05:20:58;9.13;;;5.00;;
3543;SDS011;1786;52.870;9.578;2022-12-11T05:23:27;12.27;;;7.00;;
3543;SDS011;1786;52.870;9.578;2022-12-11T05:25:55;10.67;;;6.80;;
3543;SDS011;1786;52.870;9.578;2022-12-11T05:28:27;10.70;;;7.30;;
3543;SDS011;1786;52.870;9.578;2022-12-11T05:30:56;9.80;;;6.43;;
3543;SDS011;1786;52.870;9.578;2022-12-11T05:33:34;7.40;;;6.53;;
3543;SDS011;1786;52.870;9.578;2022-12-11T05:36:00;10.83;;;7.13;;
3543;SDS011;1786;52.870;9.578;2022-12-11T05:38:27;10.50;;;6.90;;
3543;SDS011;1786;52.870;9.578;2022-12-11T05:40:55;11.40;;;7.10;;
3543;SDS011;1786;52.870;9.578;2022-12-11T05:43:26;11.30;;;8.07;;
3543;SDS011;1786;52.870;9.578;2022-12-11T05:45:55;9.03;;;7.03;;
3543;SDS011;1786;52.870;9.578;2022-12-11T05:48:22;8.63;;;6.20;;
3543;SDS011;1786;52.870;9.578;2022-12-11T05:50:55;10.17;;;7.40;;
3543;SDS011;1786;52.870;9.578;2022-12-11T05:53:25;7.37;;;6.40;;
3543;SDS011;1786;52.870;9.578;2022-12-11T05:55:52;8.23;;;6.23;;
3543;SDS011;1786;52.870;9.578;2022-12-11T05:58:19;11.90;;;6.33;;
3543;SDS011;1786;52.870;9.578;2022-12-11T06:00:46;8.43;;;5.83;;
3543;SDS011;1786;52.870;9.578;2022-12-11T06:03:13;10.93;;;6.73;;
3543;SDS011;1786;52.870;9.578;2022-12-11T06:05:40;11.53;;;6.97;;
3543;SDS011;1786;52.870;9.578;2022-12-11T06:08:07;11.40;;;7.40;;
3543;SDS011;1786;52.870;9.578;2022-12-11T06:10:34;8.80;;;6.17;;
3543;SDS011;1786;52.870;9.578;2022-12-11T06:13:00;12.70;;;6.67;;
3543;SDS011;1786;52.870;9.578;2022-12-11T06:15:27;9.97;;;6.70;;
3543;SDS011;1786;52.870;9.578;2022-12-11T06:17:54;9.80;;;6.73;;
3543;SDS011;1786;52.870;9.578;2022-12-11T06:20:21;8.83;;;6.70;;
3543;SDS011;1786;52.870;9.578;2022-12-11T06:22:47;9.73;;;6.97;;
3543;SDS011;1786;52.870;9.578;2022-12-11T06:25:14;11.60;;;7.60;;
3543;SDS011;1786;52.870;9.578;2022-12-11T06:27:41;12.03;;;7.17;;
3543;SDS011;1786;52.870;9.578;2022-12-11T06:30:08;12.07;;;6.80;;
3543;SDS011;1786;52.870;9.578;2022-12-11T06:32:35;10.40;;;7.20;;
3543;SDS011;1786;52.870;9.578;2022-12-11T06:35:02;10.47;;;6.83;;
3543;SDS011;1786;52.870;9.578;2022-12-11T06:37:28;12.70;;;8.13;;
3543;SDS011;1786;52.870;9.578;2022-12-11T06:39:55;9.43;;;6.97;;
3543;SDS011;1786;52.870;9.578;2022-12-11T06:42:22;10.73;;;7.50;;
3543;SDS011;1786;52.870;9.578;2022-12-11T06:44:48;15.00;;;7.80;;
3543;SDS011;1786;52.870;9.578;2022-12-11T06:47:15;7.23;;;5.40;;
3543;SDS011;1786;52.870;9.578;2022-12-11T06:49:42;11.13;;;6.53;;
3543;SDS011;1786;52.870;9.578;2022-12-11T06:52:09;11.33;;;6.37;;
3543;SDS011;1786;52.870;9.578;2022-12-11T06:54:43;11.77;;;7.00;;
3543;SDS011;1786;52.870;9.578;2022-12-11T06:57:10;10.87;;;6.47;;
3543;SDS011;1786;52.870;9.578;2022-12-11T06:59:36;11.90;;;6.97;;
3543;SDS011;1786;52.870;9.578;2022-12-11T07:02:03;16.60;;;7.40;;
3543;SDS011;1786;52.870;9.578;2022-12-11T07:04:30;11.40;;;7.37;;
3543;SDS011;1786;52.870;9.578;2022-12-11T07:06:57;14.00;;;8.33;;
3543;SDS011;1786;52.870;9.578;2022-12-11T07:09:23;10.40;;;6.80;;
3543;SDS011;1786;52.870;9.578;2022-12-11T07:11:50;14.00;;;8.27;;
3543;SDS011;1786;52.870;9.578;2022-12-11T07:14:18;10.60;;;6.70;;
3543;SDS011;1786;52.870;9.578;2022-12-11T07:16:45;9.70;;;6.90;;
3543;SDS011;1786;52.870;9.578;2022-12-11T07:19:12;9.13;;;6.87;;
3543;SDS011;1786;52.870;9.578;2022-12-11T07:21:38;11.97;;;7.30;;
3543;SDS011;1786;52.870;9.578;2022-12-11T07:24:05;11.40;;;7.70;;
3543;SDS011;1786;52.870;9.578;2022-12-11T07:26:32;10.07;;;7.20;;
3543;SDS011;1786;52.870;9.578;2022-12-11T07:28:59;8.10;;;5.80;;
3543;SDS011;1786;52.870;9.578;2022-12-11T07:31:27;10.17;;;6.80;;
3543;SDS011;1786;52.870;9.578;2022-12-11T07:33:55;8.97;;;6.93;;
3543;SDS011;1786;52.870;9.578;2022-12-11T07:36:23;8.57;;;7.00;;
3543;SDS011;1786;52.870;9.578;2022-12-11T07:38:51;9.23;;;7.13;;
3543;SDS011;1786;52.870;9.578;2022-12-11T07:41:18;9.33;;;6.73;;
3543;SDS011;1786;52.870;9.578;2022-12-11T07:43:51;10.63;;;6.47;;
3543;SDS011;1786;52.870;9.578;2022-12-11T07:46:20;11.03;;;7.53;;
3543;SDS011;1786;52.870;9.578;2022-12-11T07:48:49;9.97;;;7.03;;
3543;SDS011;1786;52.870;9.578;2022-12-11T07:51:17;10.03;;;6.20;;
3543;SDS011;1786;52.870;9.578;2022-12-11T07:53:47;9.27;;;6.77;;
3543;SDS011;1786;52.870;9.578;2022-12-11T07:56:15;8.77;;;5.90;;
3543;SDS011;1786;52.870;9.578;2022-12-11T07:58:43;9.73;;;6.90;;
3543;SDS011;1786;52.870;9.578;2022-12-11T08:01:11;11.83;;;7.83;;
3543;SDS011;1786;52.870;9.578;2022-12-11T08:03:39;7.93;;;5.63;;
3543;SDS011;1786;52.870;9.578;2022-12-11T08:06:06;7.53;;;6.73;;
3543;SDS011;1786;52.870;9.578;2022-12-11T08:08:33;10.83;;;5.47;;
3543;SDS011;1786;52.870;9.578;2022-12-11T08:11:00;10.30;;;7.27;;
3543;SDS011;1786;52.870;9.578;2022-12-11T08:13:28;8.43;;;6.00;;
3543;SDS011;1786;52.870;9.578;2022-12-11T08:15:55;8.93;;;6.03;;
3543;SDS011;1786;52.870;9.578;2022-12-11T08:18:22;10.37;;;5.50;;
3543;SDS011;1786;52.870;9.578;2022-12-11T08:20:49;14.93;;;6.50;;
3543;SDS011;1786;52.870;9.578;2022-12-11T08:23:16;10.27;;;7.20;;
3543;SDS011;1786;52.870;9.578;2022-12-11T08:25:42;7.40;;;5.33;;
3543;SDS011;1786;52.870;9.578;2022-12-11T08:28:09;10.30;;;6.67;;
3543;SDS011;1786;52.870;9.578;2022-12-11T08:30:38;10.40;;;6.27;;
3543;SDS011;1786;52.870;9.578;2022-12-11T08:33:05;8.50;;;6.30;;
3543;SDS011;1786;52.870;9.578;2022-12-11T08:35:32;10.03;;;7.23;;
3543;SDS011;1786;52.870;9.578;2022-12-11T08:38:04;9.57;;;6.63;;
3543;SDS011;1786;52.870;9.578;2022-12-11T08:40:31;11.80;;;7.17;;
3543;SDS011;1786;52.870;9.578;2022-12-11T08:42:58;9.63;;;6.30;;
3543;SDS011;1786;52.870;9.578;2022-12-11T08:45:25;8.83;;;6.23;;
3543;SDS011;1786;52.870;9.578;2022-12-11T08:47:52;9.10;;;6.27;;
3543;SDS011;1786;52.870;9.578;2022-12-11T08:50:19;15.03;;;6.80;;
3543;SDS011;1786;52.870;9.578;2022-12-11T08:52:46;10.87;;;6.17;;
3543;SDS011;1786;52.870;9.578;2022-12-11T08:55:12;11.80;;;6.93;;
3543;SDS011;1786;52.870;9.578;2022-12-11T08:57:39;9.43;;;6.70;;
3543;SDS011;1786;52.870;9.578;2022-12-11T09:00:06;11.70;;;7.03;;
3543;SDS011;1786;52.870;9.578;2022-12-11T09:02:34;10.73;;;7.13;;
3543;SDS011;1786;52.870;9.578;2022-12-11T09:05:01;11.80;;;7.60;;
3543;SDS011;1786;52.870;9.578;2022-12-11T09:07:28;9.37;;;6.40;;
3543;SDS011;1786;52.870;9.578;2022-12-11T09:09:55;7.53;;;6.10;;
3543;SDS011;1786;52.870;9.578;2022-12-11T09:12:22;8.70;;;6.13;;
3543;SDS011;1786;52.870;9.578;2022-12-11T09:14:48;7.83;;;6.20;;
3543;SDS011;1786;52.870;9.578;2022-12-11T09:17:15;8.57;;;6.73;;
3543;SDS011;1786;52.870;9.578;2022-12-11T09:19:42;7.70;;;6.40;;
3543;SDS011;1786;52.870;9.578;2022-12-11T09:22:08;9.27;;;5.90;;
3543;SDS011;1786;52.870;9.578;2022-12-11T09:24:36;11.17;;;6.10;;
3543;SDS011;1786;52.870;9.578;2022-12-11T09:27:04;12.43;;;6.97;;
3543;SDS011;1786;52.870;9.578;2022-12-11T09:29:31;6.53;;;5.20;;
3543;SDS011;1786;52.870;9.578;2022-12-11T09:31:58;9.53;;;5.70;;
3543;SDS011;1786;52.870;9.578;2022-12-11T09:34:25;9.13;;;6.53;;
3543;SDS011;1786;52.870;9.578;2022-12-11T09:36:55;9.20;;;6.77;;
3543;SDS011;1786;52.870;9.578;2022-12-11T09:39:22;7.60;;;6.13;;
3543;SDS011;1786;52.870;9.578;2022-12-11T09:44:53;9.57;;;5.87;;
3543;SDS011;1786;52.870;9.578;2022-12-11T09:50:03;9.43;;;7.07;;
3543;SDS011;1786;52.870;9.578;2022-12-11T09:55:24;9.30;;;5.80;;
3543;SDS011;1786;52.870;9.578;2022-12-11T09:58:12;6.53;;;5.83;;
3543;SDS011;1786;52.870;9.578;2022-12-11T10:00:44;10.53;;;6.03;;
3543;SDS011;1786;52.870;9.578;2022-12-11T10:06:27;8.70;;;6.23;;
3543;SDS011;1786;52.870;9.578;2022-12-11T10:12:00;11.00;;;6.33;;
3543;SDS011;1786;52.870;9.578;2022-12-11T10:14:36;9.97;;;6.93;;
3543;SDS011;1786;52.870;9.578;2022-12-11T10:17:24;9.57;;;7.17;;
3543;SDS011;1786;52.870;9.578;2022-12-11T10:19:59;5.90;;;5.30;;
3543;SDS011;1786;52.870;9.578;2022-12-11T10:22:42;9.33;;;5.73;;
3543;SDS011;1786;52.870;9.578;2022-12-11T10:27:50;7.57;;;5.40;;
3543;SDS011;1786;52.870;9.578;2022-12-11T10:30:28;8.43;;;5.90;;
3543;SDS011;1786;52.870;9.578;2022-12-11T10:33:19;9.17;;;6.03;;
3543;SDS011;1786;52.870;9.578;2022-12-11T10:35:51;7.17;;;6.00;;
3543;SDS011;1786;52.870;9.578;2022-12-11T10:38:23;9.43;;;6.07;;
3543;SDS011;1786;52.870;9.578;2022-12-11T10:43:40;8.83;;;6.57;;
3543;SDS011;1786;52.870;9.578;2022-12-11T10:46:16;8.80;;;6.00;;
3543;SDS011;1786;52.870;9.578;2022-12-11T10:48:59;9.50;;;6.87;;
3543;SDS011;1786;52.870;9.578;2022-12-11T10:53:56;9.83;;;7.17;;
3543;SDS011;1786;52.870;9.578;2022-12-11T10:56:33;11.97;;;7.10;;
3543;SDS011;1786;52.870;9.578;2022-12-11T10:59:02;11.77;;;7.10;;
3543;SDS011;1786;52.870;9.578;2022-12-11T11:01:30;9.30;;;7.33;;
3543;SDS011;1786;52.870;9.578;2022-12-11T11:04:01;10.17;;;7.40;;
3543;SDS011;1786;52.870;9.578;2022-12-11T11:06:29;12.27;;;9.47;;
3543;SDS011;1786;52.870;9.578;2022-12-11T11:08:56;12.63;;;7.17;;
3543;SDS011;1786;52.870;9.578;2022-12-11T11:11:32;12.47;;;9.03;;
3543;SDS011;1786;52.870;9.578;2022-12-11T11:16:36;12.50;;;8.50;;
3543;SDS011;1786;52.870;9.578;2022-12-11T11:19:05;11.87;;;8.07;;
3543;SDS011;1786;52.870;9.578;2022-12-11T11:21:33;8.97;;;7.57;;
3543;SDS011;1786;52.870;9.578;2022-12-11T11:24:01;12.10;;;8.53;;
3543;SDS011;1786;52.870;9.578;2022-12-11T11:26:30;11.27;;;8.93;;
3543;SDS011;1786;52.870;9.578;2022-12-11T11:29:22;13.67;;;9.00;;
3543;SDS011;1786;52.870;9.578;2022-12-11T11:31:54;9.60;;;8.03;;
3543;SDS011;1786;52.870;9.578;2022-12-11T11:34:21;11.40;;;8.70;;
3543;SDS011;1786;52.870;9.578;2022-12-11T11:36:55;10.00;;;7.77;;
3543;SDS011;1786;52.870;9.578;2022-12-11T11:41:52;13.73;;;9.33;;
3543;SDS011;1786;52.870;9.578;2022-12-11T11:44:29;10.80;;;7.70;;
3543;SDS011;1786;52.870;9.578;2022-12-11T11:47:01;9.53;;;7.40;;
3543;SDS011;1786;52.870;9.578;2022-12-11T11:55:02;22.10;;;12.90;;
3543;SDS011;1786;52.870;9.578;2022-12-11T11:57:44;12.30;;;9.27;;
3543;SDS011;1786;52.870;9.578;2022-12-11T12:00:21;13.33;;;9.30;;
3543;SDS011;1786;52.870;9.578;2022-12-11T12:03:00;11.17;;;8.03;;
3543;SDS011;1786;52.870;9.578;2022-12-11T12:05:40;13.50;;;8.67;;
3543;SDS011;1786;52.870;9.578;2022-12-11T12:08:29;16.57;;;9.30;;
3543;SDS011;1786;52.870;9.578;2022-12-11T12:11:33;10.93;;;7.60;;
3543;SDS011;1786;52.870;9.578;2022-12-11T12:17:25;10.43;;;7.70;;
3543;SDS011;1786;52.870;9.578;2022-12-11T12:26:30;13.77;;;9.10;;
3543;SDS011;1786;52.870;9.578;2022-12-11T12:37:10;10.03;;;7.13;;
3543;SDS011;1786;52.870;9.578;2022-12-11T12:44:57;8.87;;;7.70;;
3543;SDS011;1786;52.870;9.578;2022-12-11T12:47:30;11.20;;;7.90;;
3543;SDS011;1786;52.870;9.578;2022-12-11T12:50:00;13.87;;;7.70;;
3543;SDS011;1786;52.870;9.578;2022-12-11T12:52:30;10.80;;;7.73;;
3543;SDS011;1786;52.870;9.578;2022-12-11T13:00:31;11.27;;;6.63;;
3543;SDS011;1786;52.870;9.578;2022-12-11T13:03:17;12.00;;;7.00;;
3543;SDS011;1786;52.870;9.578;2022-12-11T13:11:11;12.30;;;7.63;;
3543;SDS011;1786;52.870;9.578;2022-12-11T13:13:41;12.47;;;8.30;;
3543;SDS011;1786;52.870;9.578;2022-12-11T13:18:46;12.60;;;8.50;;
3543;SDS011;1786;52.870;9.578;2022-12-11T13:23:52;12.80;;;9.17;;
3543;SDS011;1786;52.870;9.578;2022-12-11T13:26:29;13.40;;;8.90;;
3543;SDS011;1786;52.870;9.578;2022-12-11T13:28:58;12.23;;;8.80;;
3543;SDS011;1786;52.870;9.578;2022-12-11T13:31:32;14.53;;;9.30;;
3543;SDS011;1786;52.870;9.578;2022-12-11T13:34:16;15.03;;;9.10;;
3543;SDS011;1786;52.870;9.578;2022-12-11T13:36:50;13.00;;;9.97;;
3543;SDS011;1786;52.870;9.578;2022-12-11T13:39:22;14.27;;;9.57;;
3543;SDS011;1786;52.870;9.578;2022-12-11T13:41:51;13.33;;;9.30;;
3543;SDS011;1786;52.870;9.578;2022-12-11T13:44:25;9.60;;;7.60;;
3543;SDS011;1786;52.870;9.578;2022-12-11T13:46:56;11.20;;;8.20;;
3543;SDS011;1786;52.870;9.578;2022-12-11T13:49:26;12.30;;;8.50;;
3543;SDS011;1786;52.870;9.578;2022-12-11T13:51:57;11.17;;;8.93;;
3543;SDS011;1786;52.870;9.578;2022-12-11T13:54:26;12.97;;;8.70;;
3543;SDS011;1786;52.870;9.578;2022-12-11T13:56:55;15.03;;;9.57;;
3543;SDS011;1786;52.870;9.578;2022-12-11T13:59:40;17.93;;;11.03;;
3543;SDS011;1786;52.870;9.578;2022-12-11T14:02:15;20.40;;;11.30;;
3543;SDS011;1786;52.870;9.578;2022-12-11T14:04:43;13.60;;;10.20;;
3543;SDS011;1786;52.870;9.578;2022-12-11T14:07:14;15.17;;;11.03;;
3543;SDS011;1786;52.870;9.578;2022-12-11T14:09:45;15.23;;;10.20;;
3543;SDS011;1786;52.870;9.578;2022-12-11T14:12:16;16.13;;;11.20;;
3543;SDS011;1786;52.870;9.578;2022-12-11T14:14:49;15.20;;;10.37;;
3543;SDS011;1786;52.870;9.578;2022-12-11T14:17:22;17.00;;;10.80;;
3543;SDS011;1786;52.870;9.578;2022-12-11T14:19:52;17.43;;;10.30;;
3543;SDS011;1786;52.870;9.578;2022-12-11T14:22:22;16.93;;;11.87;;
3543;SDS011;1786;52.870;9.578;2022-12-11T14:24:51;19.47;;;11.70;;
3543;SDS011;1786;52.870;9.578;2022-12-11T14:27:23;17.40;;;11.20;;
3543;SDS011;1786;52.870;9.578;2022-12-11T14:29:51;15.70;;;10.33;;
3543;SDS011;1786;52.870;9.578;2022-12-11T14:32:19;13.50;;;9.23;;
3543;SDS011;1786;52.870;9.578;2022-12-11T14:35:01;15.00;;;10.17;;
3543;SDS011;1786;52.870;9.578;2022-12-11T14:37:31;16.37;;;10.30;;
3543;SDS011;1786;52.870;9.578;2022-12-11T14:40:00;20.40;;;11.27;;
3543;SDS011;1786;52.870;9.578;2022-12-11T14:42:37;15.40;;;10.00;;
3543;SDS011;1786;52.870;9.578;2022-12-11T14:47:49;18.10;;;11.57;;
3543;SDS011;1786;52.870;9.578;2022-12-11T14:50:22;21.97;;;13.50;;
3543;SDS011;1786;52.870;9.578;2022-12-11T14:53:00;23.80;;;14.40;;
3543;SDS011;1786;52.870;9.578;2022-12-11T14:55:30;25.67;;;13.93;;
3543;SDS011;1786;52.870;9.578;2022-12-11T14:58:05;24.33;;;16.23;;
3543;SDS011;1786;52.870;9.578;2022-12-11T15:00:42;28.07;;;16.13;;
3543;SDS011;1786;52.870;9.578;2022-12-11T15:05:52;21.63;;;14.13;;
3543;SDS011;1786;52.870;9.578;2022-12-11T15:08:24;20.10;;;13.20;;
3543;SDS011;1786;52.870;9.578;2022-12-11T15:13:34;22.90;;;12.83;;
3543;SDS011;1786;52.870;9.578;2022-12-11T15:16:03;20.87;;;12.67;;
3543;SDS011;1786;52.870;9.578;2022-12-11T15:18:33;20.13;;;12.67;;
3543;SDS011;1786;52.870;9.578;2022-12-11T15:21:02;21.80;;;13.10;;
3543;SDS011;1786;52.870;9.578;2022-12-11T15:23:33;26.07;;;14.50;;
3543;SDS011;1786;52.870;9.578;2022-12-11T15:26:14;24.17;;;13.00;;
3543;SDS011;1786;52.870;9.578;2022-12-11T15:28:40;23.97;;;13.90;;
3543;SDS011;1786;52.870;9.578;2022-12-11T15:31:26;20.90;;;13.27;;
3543;SDS011;1786;52.870;9.578;2022-12-11T15:33:54;16.80;;;10.70;;
3543;SDS011;1786;52.870;9.578;2022-12-11T15:38:57;21.23;;;11.40;;
3543;SDS011;1786;52.870;9.578;2022-12-11T15:41:24;17.60;;;10.60;;
3543;SDS011;1786;52.870;9.578;2022-12-11T15:43:52;22.93;;;12.60;;
3543;SDS011;1786;52.870;9.578;2022-12-11T15:46:24;21.90;;;10.03;;
3543;SDS011;1786;52.870;9.578;2022-12-11T15:48:50;24.27;;;11.67;;
3543;SDS011;1786;52.870;9.578;2022-12-11T15:51:18;23.53;;;12.73;;
3543;SDS011;1786;52.870;9.578;2022-12-11T15:53:44;19.70;;;11.80;;
3543;SDS011;1786;52.870;9.578;2022-12-11T15:56:12;18.63;;;12.20;;
3543;SDS011;1786;52.870;9.578;2022-12-11T15:58:40;17.77;;;11.70;;
3543;SDS011;1786;52.870;9.578;2022-12-11T16:01:10;17.23;;;11.20;;
3543;SDS011;1786;52.870;9.578;2022-12-11T16:03:37;23.50;;;12.47;;
3543;SDS011;1786;52.870;9.578;2022-12-11T16:06:04;22.93;;;12.57;;
3543;SDS011;1786;52.870;9.578;2022-12-11T16:08:31;29.17;;;15.30;;
3543;SDS011;1786;52.870;9.578;2022-12-11T16:10:57;30.10;;;16.37;;
3543;SDS011;1786;52.870;9.578;2022-12-11T16:13:25;33.00;;;17.23;;
3543;SDS011;1786;52.870;9.578;2022-12-11T16:15:52;34.73;;;17.00;;
3543;SDS011;1786;52.870;9.578;2022-12-11T16:18:20;29.40;;;16.10;;
3543;SDS011;1786;52.870;9.578;2022-12-11T16:20:49;31.97;;;20.17;;
3543;SDS011;1786;52.870;9.578;2022-12-11T16:23:16;31.60;;;18.10;;
3543;SDS011;1786;52.870;9.578;2022-12-11T16:25:44;30.10;;;15.77;;
3543;SDS011;1786;52.870;9.578;2022-12-11T16:28:14;23.10;;;13.97;;
3543;SDS011;1786;52.870;9.578;2022-12-11T16:30:43;21.90;;;12.37;;
3543;SDS011;1786;52.870;9.578;2022-12-11T16:33:11;24.77;;;13.73;;
3543;SDS011;1786;52.870;9.578;2022-12-11T16:35:39;26.07;;;13.67;;
3543;SDS011;1786;52.870;9.578;2022-12-11T16:38:08;19.77;;;12.70;;
3543;SDS011;1786;52.870;9.578;2022-12-11T16:40:35;25.30;;;14.60;;
3543;SDS011;1786;52.870;9.578;2022-12-11T16:43:03;28.97;;;15.57;;
3543;SDS011;1786;52.870;9.578;2022-12-11T16:45:31;37.27;;;19.57;;
3543;SDS011;1786;52.870;9.578;2022-12-11T16:48:00;39.07;;;18.40;;
3543;SDS011;1786;52.870;9.578;2022-12-11T16:50:28;23.90;;;13.97;;
3543;SDS011;1786;52.870;9.578;2022-12-11T16:52:55;18.00;;;10.60;;
3543;SDS011;1786;52.870;9.578;2022-12-11T16:55:22;21.37;;;12.03;;
3543;SDS011;1786;52.870;9.578;2022-12-11T16:57:49;21.60;;;11.33;;
3543;SDS011;1786;52.870;9.578;2022-12-11T17:00:16;25.40;;;12.80;;
3543;SDS011;1786;52.870;9.578;2022-12-11T17:02:42;19.10;;;10.93;;
3543;SDS011;1786;52.870;9.578;2022-12-11T17:05:10;19.63;;;10.70;;
3543;SDS011;1786;52.870;9.578;2022-12-11T17:07:38;25.43;;;12.10;;